Metar Cercanos

 

LEPA - Palma De Mallorc, Spain
Distance from station: ONO 38km
Actualización: Mon, 24-Jun-2024 2:00pm CEST
Muy nuboso
Muy nuboso
 Viento del SO
Viento: SO 15 km/h
Temperatura: 25°C
Rocío: 15°C
Humedad: 54%
Barómetro: 1014 hPa
Clouds: Muy nuboso
Visibility: 10 km
Cloud details: Few Clouds 610 m
Muy nuboso 1981 m
2024/06/24 12:00 LEPA 241200Z 23008KT 9999 FEW020 BKN065 25/15 Q1014 NOSIG
LEMH - Mahon/Menorca Is, Spain
Distance from station: ENE 105km
Actualización: Mon, 24-Jun-2024 2:00pm CEST
Few Clouds
Few Clouds
 Viento del N
Viento: N 24 km/h
Temperatura: 25°C
Rocío: 14°C
Humedad: 51%
Barómetro: 1014 hPa
Clouds: Few Clouds
Visibility: 10 km
Cloud details: Few Clouds 1219 m
2024/06/24 12:00 LEMH 241200Z 36013KT 320V040 9999 FEW040 25/14 Q1014
 
LEIB - Ibiza/Es Codola, Spain
Distance from station: OSO 165km
Actualización: Mon, 24-Jun-2024 2:00pm CEST
Few Clouds
Few Clouds
 Viento del E
Viento: E 15 km/h
Temperatura: 25°C
Rocío: 15°C
Humedad: 54%
Barómetro: 1014 hPa
Clouds: Few Clouds
Visibility: 10 km
Cloud details: Few Clouds 914 m
2024/06/24 12:00 LEIB 241200Z 08008KT 050V150 9999 FEW030 25/15 Q1014 NOSIG
LEBL - Barcelona Airpor, Spain
Distance from station: NNO 225km
Actualización: Mon, 24-Jun-2024 2:00pm CEST
Few Clouds
Few Clouds
 Viento del S
Viento: S 19 km/h
Temperatura: 25°C
Rocío: 17°C
Humedad: 61%
Barómetro: 1013 hPa
Clouds: Few Clouds
Visibility: 10 km
Cloud details: Few Clouds 914 m
2024/06/24 12:00 LEBL 241200Z 19010KT 160V240 9999 FEW030 25/17 Q1013 NOSIG
 
LEVC - Valencia (civ/Mi, Spain
Distance from station: NO 188km
Actualización: Mon, 24-Jun-2024 2:00pm CEST
Parcialmente nuboso
Parcialmente nuboso
 Viento del ESE
Viento: ESE 17 km/h
Temperatura: 27°C
Indice Calor: 28°C
Rocío: 16°C
Humedad: 51%
Barómetro: 1013 hPa
Clouds: Parcialmente nuboso
Visibility: 10 km
Cloud details: Few Clouds 610 m
Parcialmente nuboso 1158 m
2024/06/24 12:00 LEVC 241200Z 12009KT 090V150 9999 FEW020 SCT038 27/16 Q1013 NOSIG
LEGE - Gerona/Costa Bra, Spain
Distance from station: N 276km
Actualización: Mon, 24-Jun-2024 2:00pm CEST
Muy nuboso
Muy nuboso
 Viento del SSO
Viento: SSO 4 km/h
Temperatura: 26°C
Rocío: 10°C
Humedad: 37%
Barómetro: 1013 hPa
Clouds: Muy nuboso
Visibility: 10 km
Cloud details: Muy nuboso 1981 m
2024/06/24 12:00 LEGE 241200Z 20002KT 9999 BKN065 26/10 Q1013 NOSIG
 
LEAL - Alicante/El Alte, Spain
Distance from station: OSO 344km
Actualización: Mon, 24-Jun-2024 2:00pm CEST
Parcialmente nuboso
Parcialmente nuboso
 Viento del E
Viento: E 17 km/h
Temperatura: 25°C
Rocío: 17°C
Humedad: 61%
Barómetro: 1014 hPa
Clouds: Parcialmente nuboso
Visibility: 10 km
Cloud details: Few Clouds 792 m
Parcialmente nuboso 1951 m
2024/06/24 12:00 LEAL 241200Z 10009KT 060V150 9999 FEW026 SCT064 25/17 Q1014 NOSIG
LEAM - Almeria Airport, Spain
Distance from station: SSO 56km
Actualización: Mon, 24-Jun-2024 2:00pm CEST
Despejado
Despejado
 Viento del E
Viento: E 28 km/h
Temperatura: 32°C
Rocío: 13°C
Humedad: 31%
Barómetro: 1011 hPa
Resumen: Despejado
Visibility: greater than 10 km
2024/06/24 12:00 LEAM 241200Z 09015KT 060V120 CAVOK 32/13 Q1011
 
LEZG - Zaragoza (mil/Ci, Spain
Distance from station: NO 431km
Actualización: Mon, 24-Jun-2024 2:00pm CEST
Despejado
Despejado
 Viento del NO
Viento: NO 11 km/h
Temperatura: 25°C
Rocío: 11°C
Humedad: 42%
Barómetro: 1014 hPa
Resumen: Despejado
Visibility: greater than 10 km
2024/06/24 12:00 LEZG 241200Z 31006KT CAVOK 25/11 Q1014 NOSIG
LEMD - Madrid/Barajas, Spain
Distance from station: ONO 234km
Actualización: Mon, 24-Jun-2024 2:00pm CEST
Despejado
Despejado
 Viento del OSO
Viento: OSO 7 km/h
Temperatura: 29°C
Rocío: 12°C
Humedad: 35%
Barómetro: 1013 hPa
Resumen: Despejado
Visibility: greater than 10 km
2024/06/24 12:00 LEMD 241200Z 24004KT CAVOK 29/12 Q1013 NOSIG
 
LEGR - Granada Airport, Spain
Distance from station: OSO 62km
Actualización: Mon, 24-Jun-2024 2:00pm CEST
Few Clouds
Few Clouds
 Viento del NNO
Viento: NNO 9 km/h
Temperatura: 33°C
Rocío: 9°C
Humedad: 23%
Barómetro: 1013 hPa
Clouds: Few Clouds
Visibility: 10 km
Cloud details: Few Clouds 1524 m
2024/06/24 12:00 LEGR 241200Z 33005KT 280V090 9999 FEW050 33/09 Q1013
LEMG - Malaga (civ/Mil), Spain
Distance from station: OSO 227km
Actualización: Mon, 24-Jun-2024 2:00pm CEST
Despejado
Despejado
 Viento del SE
Viento: SE 15 km/h
Temperatura: 26°C
Rocío: 13°C
Humedad: 45%
Barómetro: 1013 hPa
Resumen: Despejado
Visibility: greater than 10 km
2024/06/24 12:00 LEMG 241200Z 14008KT 100V200 CAVOK 26/13 Q1013 NOSIG
 
LEZL - Sevilla (civ/Mil, Spain
Distance from station: S 318km
Actualización: Mon, 24-Jun-2024 2:00pm CEST
Despejado
Despejado
 Viento del NNO
Viento: NNO 2 km/h
Temperatura: 33°C
Rocío: 9°C
Humedad: 23%
Barómetro: 1010 hPa
Resumen: Despejado
Visibility: greater than 10 km
2024/06/24 12:00 LEZL 241200Z 33001KT CAVOK 33/09 Q1010 NOSIG
LEVT - Vitoria, Spain
Distance from station: NO 226km
Actualización: Mon, 24-Jun-2024 2:00pm CEST
Parcialmente nuboso
Parcialmente nuboso
 Viento del NNE
Viento: NNE 15 km/h
Temperatura: 21°C
Rocío: 12°C
Humedad: 57%
Barómetro: 1016 hPa
Clouds: Parcialmente nuboso
Visibility: 10 km
Cloud details: Parcialmente nuboso 1067 m
2024/06/24 12:00 LEVT 241200Z 02008KT 340V070 9999 SCT035 21/12 Q1016
 
LEBB - Bilbao/Sondica, Spain
Distance from station: NNO 235km
Actualización: Mon, 24-Jun-2024 2:00pm CEST
Parcialmente nuboso
Parcialmente nuboso
 Viento del ENE
Viento: ENE 15 km/h
Temperatura: 25°C
Rocío: 15°C
Humedad: 54%
Barómetro: 1016 hPa
Clouds: Parcialmente nuboso
Visibility: 10 km
Cloud details: Parcialmente nuboso 1189 m
Parcialmente nuboso 1463 m
2024/06/24 12:00 LEBB 241200Z 07008KT 020V100 9999 SCT039 SCT048 25/15 Q1016 NOSIG
LESO - San Sebastian/Fu, Spain
Distance from station: N 231km
Actualización: Mon, 24-Jun-2024 2:00pm CEST
Few Clouds
Few Clouds
 Viento del N
Viento: N 11 km/h
Temperatura: 22°C
Rocío: 17°C
Humedad: 73%
Barómetro: 1016 hPa
Clouds: Few Clouds
Visibility: 10 km
Cloud details: Few Clouds 610 m
2024/06/24 12:00 LESO 241200Z 01006KT 330V060 9999 FEW020 22/17 Q1016
 
LEVD - Valladolid(Mil/C, Spain
Distance from station: ONO 239km
Actualización: Mon, 24-Jun-2024 2:00pm CEST
Despejado
Despejado
 Viento del ESE
Viento: ESE 7 km/h
Temperatura: 24°C
Rocío: 11°C
Humedad: 44%
Barómetro: 1016 hPa
Resumen: Despejado
Visibility: greater than 10 km
2024/06/24 12:00 LEVD 241200Z 11004KT CAVOK 24/11 Q1016 NOSIG
LESA - Salamanca (civ/M, Spain
Distance from station: ONO 349km
Actualización: Mon, 24-Jun-2024 2:00pm CEST
Despejado
Despejado
 Viento del varies
Viento: varies 6 km/h
Temperatura: 26°C
Rocío: 14°C
Humedad: 48%
Barómetro: 1015 hPa
Resumen: Despejado
Visibility: greater than 10 km
2024/06/24 12:00 LESA 241200Z VRB03KT CAVOK 26/14 Q1015
 
LEXJ - Santander/Paraya, Spain
Distance from station: NNO 247km
Actualización: Mon, 24-Jun-2024 2:00pm CEST
Few Clouds
Few Clouds
 Viento del NE
Viento: NE 15 km/h
Temperatura: 21°C
Rocío: 18°C
Humedad: 83%
Barómetro: 1015 hPa
Clouds: Few Clouds
Visibility: 10 km
Cloud details: Few Clouds 823 m
2024/06/24 12:00 LEXJ 241200Z 04008KT 340V120 9999 FEW027 21/18 Q1015
LEAS - Asturias/Aviles, Spain
Distance from station: NO 214km
Actualización: Mon, 24-Jun-2024 2:00pm CEST
Muy nuboso
Muy nuboso
 Viento del E
Viento: E 15 km/h
Temperatura: 21°C
Rocío: 17°C
Humedad: 78%
Barómetro: 1016 hPa
Clouds: Muy nuboso
Visibility: 10 km
Cloud details: Parcialmente nuboso 427 m
Muy nuboso 792 m
2024/06/24 12:00 LEAS 241200Z 08008KT 050V120 9999 SCT014 BKN026 21/17 Q1016 NOSIG
 
LECO - La Coruna/Alvedr, Spain
Distance from station: ONO 222km
Actualización: Mon, 24-Jun-2024 2:00pm CEST
Despejado
Despejado
 Viento del N
Viento: N 13 km/h
Temperatura: 22°C
Rocío: 17°C
Humedad: 73%
Barómetro: 1013 hPa
Resumen: Despejado
Visibility: greater than 10 km
2024/06/24 12:00 LECO 241200Z 01007KT 320V080 CAVOK 22/17 Q1013 NOSIG
LEVX - Vigo/Peinador, Spain
Distance from station: O 214km
Actualización: Mon, 24-Jun-2024 2:00pm CEST
Few Clouds
Few Clouds
 Viento del SO
Viento: SO 9 km/h
Temperatura: 28°C
Indice Calor: 29°C
Rocío: 20°C
Humedad: 62%
Barómetro: 1012 hPa
Clouds: Few Clouds
Visibility: 10 km
Cloud details: Few Clouds 1067 m
2024/06/24 12:00 LEVX 241200Z 22005KT 170V260 9999 FEW035 28/20 Q1012 NOSIG